Time;durP1;ratioP1;P1;durP2;ratioP2;P2;SDS_P1;SDS_P2;PMS_P1;PMS_P2;Temp;Humidity;BMP_temperature;BMP_pressure;BME280_temperature;BME280_humidity;BME280_pressure;Samples;Min_cycle;Max_cycle;Signal;HPM_P1;HPM_P2
2023/03/01 00:02:04;;;;;;;26.45;17.20;;;-0.90;99.90;;;;;;5011483;28;20025;-58
2023/03/01 00:04:30;;;;;;;30.05;16.45;;;-0.90;99.90;;;;;;5001261;28;20159;-59
2023/03/01 00:06:56;;;;;;;33.53;18.52;;;-1.00;99.90;;;;;;5017466;28;20060;-57
2023/03/01 00:09:21;;;;;;;30.02;17.55;;;-1.00;99.90;;;;;;4999754;28;20027;-60
2023/03/01 00:11:48;;;;;;;27.80;15.90;;;-1.20;99.90;;;;;;5009773;28;20037;-59
2023/03/01 00:14:16;;;;;;;31.95;17.05;;;-1.30;99.90;;;;;;5011729;28;20057;-60
2023/03/01 00:16:43;;;;;;;30.08;16.42;;;-1.50;99.90;;;;;;5003988;28;21456;-60
2023/03/01 00:19:18;;;;;;;22.75;15.13;;;-1.60;99.90;;;;;;5016927;28;20026;-60
2023/03/01 00:21:44;;;;;;;25.38;16.38;;;-1.70;99.90;;;;;;4997694;28;20034;-58
2023/03/01 00:24:10;;;;;;;28.48;16.75;;;-1.80;99.90;;;;;;5011207;28;20109;-59
2023/03/01 00:26:36;;;;;;;26.33;17.63;;;-1.90;99.90;;;;;;5008300;28;20494;-59
2023/03/01 00:29:02;;;;;;;27.55;16.05;;;-1.90;99.90;;;;;;4998653;28;20042;-59
2023/03/01 00:31:31;;;;;;;25.15;16.05;;;-1.90;99.90;;;;;;5015476;28;20026;-59
2023/03/01 00:33:59;;;;;;;26.58;16.88;;;-2.00;99.90;;;;;;4996510;28;20096;-61
2023/03/01 00:36:27;;;;;;;30.70;16.08;;;-2.00;99.90;;;;;;5012124;28;20022;-59
2023/03/01 00:38:53;;;;;;;27.15;15.70;;;-2.00;99.90;;;;;;5004061;28;20700;-59
2023/03/01 00:41:20;;;;;;;31.40;16.27;;;-2.00;99.90;;;;;;5004179;28;20073;-58
2023/03/01 00:43:46;;;;;;;26.45;15.48;;;-2.00;99.90;;;;;;5011305;28;20495;-58
2023/03/01 00:46:15;;;;;;;25.70;15.15;;;-2.00;99.90;;;;;;4997591;28;20025;-58
2023/03/01 00:48:41;;;;;;;29.60;16.80;;;-2.00;99.90;;;;;;5013338;28;20104;-57
2023/03/01 00:51:39;;;;;;;32.50;16.80;;;-2.00;99.90;;;;;;5000812;28;20092;-59
2023/03/01 00:54:04;;;;;;;28.63;16.40;;;-2.00;99.90;;;;;;5007464;28;20041;-57
2023/03/01 00:56:30;;;;;;;31.20;16.45;;;-1.90;99.90;;;;;;5006096;28;20030;-59
2023/03/01 00:58:56;;;;;;;29.30;16.48;;;-1.90;99.90;;;;;;4998832;28;20026;-59
2023/03/01 01:01:27;;;;;;;31.25;17.42;;;-2.00;99.90;;;;;;5014636;28;20022;-58
2023/03/01 01:04:05;;;;;;;35.08;18.77;;;-2.00;99.90;;;;;;5016022;28;20063;-58
2023/03/01 01:06:37;;;;;;;32.60;17.45;;;-2.00;99.90;;;;;;5012987;28;20026;-57
2023/03/01 01:09:05;;;;;;;30.50;17.45;;;-2.00;99.90;;;;;;5015077;28;20561;-59
2023/03/01 01:11:30;;;;;;;32.33;17.58;;;-2.10;99.90;;;;;;5007432;28;20034;-59
2023/03/01 01:13:57;;;;;;;29.77;17.45;;;-2.10;99.90;;;;;;5000394;28;20502;-60
2023/03/01 01:16:25;;;;;;;37.72;17.20;;;-2.20;99.90;;;;;;5013999;28;20026;-57
2023/03/01 01:18:51;;;;;;;35.33;19.30;;;-2.20;99.90;;;;;;4998009;28;20022;-58
2023/03/01 01:21:22;;;;;;;27.30;15.93;;;-2.30;99.90;;;;;;5012352;28;20394;-59
2023/03/01 01:23:48;;;;;;;28.60;16.55;;;-2.30;99.90;;;;;;5002859;28;20037;-59
2023/03/01 01:26:18;;;;;;;30.15;16.73;;;-2.30;99.90;;;;;;5000531;28;20180;-58
2023/03/01 01:28:44;;;;;;;31.67;17.48;;;-2.30;99.90;;;;;;5009295;28;20049;-59
2023/03/01 01:31:10;;;;;;;32.22;17.60;;;-2.30;99.90;;;;;;4993336;28;20053;-58
2023/03/01 01:33:37;;;;;;;27.08;16.92;;;-2.30;99.90;;;;;;5014204;28;20056;-58
2023/03/01 01:36:03;;;;;;;29.88;16.83;;;-2.40;99.90;;;;;;5000541;28;20034;-58
2023/03/01 01:38:29;;;;;;;31.67;17.70;;;-2.40;99.90;;;;;;5004600;28;20509;-59
2023/03/01 01:40:55;;;;;;;31.90;16.80;;;-2.40;99.90;;;;;;5010026;28;20061;-60
2023/03/01 01:43:20;;;;;;;31.02;17.88;;;-2.40;99.90;;;;;;4995871;28;20778;-58
2023/03/01 01:45:46;;;;;;;34.58;16.02;;;-2.40;99.90;;;;;;5016063;28;20033;-58
2023/03/01 01:48:18;;;;;;;27.60;15.90;;;-2.40;99.90;;;;;;4995252;28;20054;-59
2023/03/01 01:50:44;;;;;;;28.70;15.07;;;-2.30;99.90;;;;;;5006063;28;20064;-59
2023/03/01 01:53:16;;;;;;;27.55;16.33;;;-2.10;99.90;;;;;;5007566;28;20038;-59
2023/03/01 01:55:48;;;;;;;32.63;16.55;;;-2.00;99.90;;;;;;4999679;28;20084;-58
2023/03/01 01:58:17;;;;;;;30.25;15.70;;;-1.90;99.90;;;;;;5017651;28;20029;-58
2023/03/01 02:00:43;;;;;;;29.88;15.38;;;-1.80;99.90;;;;;;4998562;28;20041;-59
2023/03/01 02:03:17;;;;;;;23.27;15.27;;;-1.70;99.90;;;;;;5008736;28;20314;-60
2023/03/01 02:06:01;;;;;;;28.05;15.57;;;-1.60;99.90;;;;;;5001294;28;20030;-59
2023/03/01 02:08:31;;;;;;;25.63;15.60;;;-1.60;99.90;;;;;;5002040;28;20060;-59
2023/03/01 02:11:04;;;;;;;24.80;14.60;;;-1.50;99.90;;;;;;5008769;28;20053;-59
2023/03/01 02:13:31;;;;;;;22.67;14.77;;;-1.40;99.90;;;;;;4988938;28;20409;-60
2023/03/01 02:15:56;;;;;;;21.60;15.68;;;-1.30;99.90;;;;;;5014217;28;20075;-58
2023/03/01 02:18:24;;;;;;;22.33;13.73;;;-1.20;99.90;;;;;;4998617;28;20027;-58
2023/03/01 02:20:50;;;;;;;26.90;14.98;;;-1.20;99.90;;;;;;5008604;28;20034;-57
2023/03/01 02:23:15;;;;;;;22.50;13.80;;;-1.30;99.90;;;;;;5007766;28;20363;-58
2023/03/01 02:25:52;;;;;;;28.58;16.23;;;-1.30;99.90;;;;;;5000893;28;20026;-58
2023/03/01 02:28:21;;;;;;;26.67;14.27;;;-1.40;99.90;;;;;;5014977;28;20057;-58
2023/03/01 02:33:36;;;;;;;23.05;14.32;;;-1.60;99.90;;;;;;5012261;28;20045;-59
2023/03/01 02:36:17;;;;;;;25.38;15.38;;;-1.70;99.90;;;;;;5001621;28;20052;-59
2023/03/01 02:38:43;;;;;;;26.88;15.65;;;-1.90;99.90;;;;;;5002287;28;20033;-58
2023/03/01 02:41:13;;;;;;;26.58;14.88;;;-2.00;99.90;;;;;;5005985;28;20038;-58
2023/03/01 02:43:38;;;;;;;35.70;18.63;;;-2.00;99.90;;;;;;4998261;28;20022;-59
2023/03/01 02:46:17;;;;;;;33.00;17.38;;;-2.10;99.90;;;;;;4996938;28;20030;-57
2023/03/01 02:48:47;;;;;;;25.75;16.38;;;-2.20;99.90;;;;;;4993679;28;20061;-58
2023/03/01 02:51:18;;;;;;;32.00;15.67;;;-2.20;99.90;;;;;;5007269;28;20026;-59
2023/03/01 02:54:15;;;;;;;29.75;16.33;;;-2.30;99.90;;;;;;5004576;28;20303;-57
2023/03/01 02:56:42;;;;;;;30.65;15.07;;;-2.40;99.90;;;;;;5000265;28;20032;-59
2023/03/01 02:59:09;;;;;;;27.65;15.25;;;-2.40;99.90;;;;;;5007752;28;20555;-59
2023/03/01 03:01:37;;;;;;;27.63;14.95;;;-2.40;99.90;;;;;;4994486;28;20029;-60
2023/03/01 03:04:09;;;;;;;30.05;16.30;;;-2.40;99.90;;;;;;5016450;28;20018;-59
2023/03/01 03:06:35;;;;;;;23.08;15.02;;;-2.50;99.90;;;;;;4996035;28;20566;-60
2023/03/01 03:09:03;;;;;;;25.42;15.10;;;-2.50;99.90;;;;;;5006563;28;20485;-60
2023/03/01 03:11:29;;;;;;;30.30;15.52;;;-2.50;99.90;;;;;;5003536;28;20432;-58
2023/03/01 03:13:55;;;;;;;27.27;16.05;;;-2.60;99.90;;;;;;4999510;28;20037;-59
2023/03/01 03:16:21;;;;;;;26.52;16.88;;;-2.60;99.90;;;;;;5021494;28;20389;-58
2023/03/01 03:18:47;;;;;;;26.02;16.10;;;-2.60;99.90;;;;;;4994215;28;20030;-58
2023/03/01 03:21:14;;;;;;;30.17;15.93;;;-2.70;99.90;;;;;;5013087;28;20083;-59
2023/03/01 03:23:40;;;;;;;42.58;18.88;;;-2.70;99.90;;;;;;5022942;28;20106;-59
2023/03/01 03:26:06;;;;;;;45.30;19.48;;;-2.80;99.90;;;;;;5009346;28;20824;-57
2023/03/01 03:28:33;;;;;;;30.02;15.95;;;-2.80;99.90;;;;;;4998628;28;20037;-59
2023/03/01 03:31:03;;;;;;;31.08;16.65;;;-2.70;99.90;;;;;;5016995;28;20057;-59
2023/03/01 03:33:29;;;;;;;35.15;17.63;;;-2.70;99.90;;;;;;5015474;28;20073;-59
2023/03/01 03:35:55;;;;;;;30.50;17.33;;;-2.70;99.90;;;;;;5018888;28;20030;-58
2023/03/01 03:38:21;;;;;;;34.83;17.27;;;-2.70;99.90;;;;;;5016773;28;20655;-59
2023/03/01 03:41:02;;;;;;;27.45;16.20;;;-2.80;99.90;;;;;;5017889;28;20037;-59
2023/03/01 03:43:29;;;;;;;27.35;15.52;;;-2.90;99.90;;;;;;5017917;28;20124;-58
2023/03/01 03:45:56;;;;;;;31.92;16.85;;;-2.90;99.90;;;;;;5013273;28;20466;-58
2023/03/01 03:48:23;;;;;;;31.85;17.13;;;-3.00;99.90;;;;;;5020532;28;20405;-55
2023/03/01 03:50:52;;;;;;;30.48;17.92;;;-3.10;99.90;;;;;;5020281;28;20060;-57
2023/03/01 03:53:18;;;;;;;32.10;18.35;;;-3.10;99.90;;;;;;5018457;28;20061;-60
2023/03/01 03:55:44;;;;;;;30.98;16.67;;;-3.10;99.90;;;;;;5017415;28;20030;-58
2023/03/01 03:58:10;;;;;;;35.72;18.50;;;-3.10;99.90;;;;;;5018761;28;20033;-58
2023/03/01 04:00:38;;;;;;;30.75;16.95;;;-3.10;99.90;;;;;;5017296;28;20385;-59
2023/03/01 04:03:04;;;;;;;34.65;18.77;;;-3.20;99.90;;;;;;5017797;28;20018;-57
2023/03/01 04:05:30;;;;;;;33.00;17.60;;;-3.20;99.90;;;;;;5012392;28;20081;-59
2023/03/01 04:08:03;;;;;;;38.50;18.38;;;-3.20;99.90;;;;;;5020180;28;20028;-57
2023/03/01 04:10:38;;;;;;;38.47;17.52;;;-3.20;99.90;;;;;;5014310;28;20048;-58
2023/03/01 04:13:06;;;;;;;33.88;18.77;;;-3.20;99.90;;;;;;5019243;28;20022;-60
2023/03/01 04:15:32;;;;;;;32.97;18.23;;;-3.20;99.90;;;;;;5015162;28;20033;-59
2023/03/01 04:17:59;;;;;;;35.33;17.27;;;-3.20;99.90;;;;;;5014336;28;20026;-58
2023/03/01 04:20:28;;;;;;;34.17;17.13;;;-3.20;99.90;;;;;;5019498;28;20524;-58
2023/03/01 04:23:10;;;;;;;33.58;18.15;;;-3.20;99.90;;;;;;5016523;28;20427;-59
2023/03/01 04:25:37;;;;;;;37.78;17.27;;;-3.10;99.90;;;;;;5015610;28;20611;-57
2023/03/01 04:28:03;;;;;;;35.30;17.95;;;-3.10;99.90;;;;;;5014605;28;20886;-58
2023/03/01 04:30:28;;;;;;;35.47;17.63;;;-3.10;99.90;;;;;;5017979;28;20025;-58
2023/03/01 04:32:54;;;;;;;36.92;18.90;;;-3.20;99.90;;;;;;5014458;28;20038;-58
2023/03/01 04:35:20;;;;;;;43.35;21.33;;;-3.30;99.90;;;;;;5012816;28;20038;-57
2023/03/01 04:37:46;;;;;;;42.08;20.27;;;-3.30;99.90;;;;;;5018814;28;20029;-57
2023/03/01 04:40:16;;;;;;;36.67;18.70;;;-3.30;99.90;;;;;;5013633;28;20033;-59
2023/03/01 04:42:42;;;;;;;28.58;17.77;;;-3.30;99.90;;;;;;5016028;28;20088;-57
2023/03/01 04:45:12;;;;;;;30.40;18.63;;;-3.30;99.90;;;;;;5013563;28;20037;-58
2023/03/01 04:47:44;;;;;;;47.53;19.87;;;-3.30;99.90;;;;;;5016629;28;20022;-57
2023/03/01 04:50:10;;;;;;;42.05;21.05;;;-3.30;99.90;;;;;;5016665;28;20043;-59
2023/03/01 04:52:37;;;;;;;44.95;19.15;;;-3.30;99.90;;;;;;5018668;28;20413;-59
2023/03/01 04:55:03;;;;;;;38.42;20.23;;;-3.40;99.90;;;;;;5013397;28;20025;-59
2023/03/01 04:57:29;;;;;;;42.58;19.77;;;-3.40;99.90;;;;;;5014758;28;20045;-57
2023/03/01 04:59:55;;;;;;;36.42;18.83;;;-3.50;99.90;;;;;;5015251;28;20105;-58
2023/03/01 05:02:20;;;;;;;35.70;17.73;;;-3.50;99.90;;;;;;5016958;28;20144;-57
2023/03/01 05:04:46;;;;;;;38.22;17.23;;;-3.50;99.90;;;;;;5012748;28;20029;-56
2023/03/01 05:07:12;;;;;;;36.22;18.50;;;-3.60;99.90;;;;;;5013236;28;20389;-57
2023/03/01 05:09:38;;;;;;;43.10;20.65;;;-3.60;99.90;;;;;;5015050;28;20510;-57
2023/03/01 05:12:04;;;;;;;41.25;19.75;;;-3.50;99.90;;;;;;5015685;28;20179;-58
2023/03/01 05:14:30;;;;;;;40.28;20.98;;;-3.50;99.90;;;;;;5017622;28;20066;-58
2023/03/01 05:17:03;;;;;;;30.60;17.50;;;-3.50;99.90;;;;;;5016455;28;20026;-57
2023/03/01 05:19:30;;;;;;;43.47;18.73;;;-3.50;99.90;;;;;;5015334;28;20156;-58
2023/03/01 05:22:06;;;;;;;33.45;18.55;;;-3.30;99.90;;;;;;5011932;28;20549;-57
2023/03/01 05:24:34;;;;;;;35.05;20.05;;;-3.20;99.90;;;;;;5017366;28;20511;-58
2023/03/01 05:27:01;;;;;;;33.92;17.60;;;-3.20;99.90;;;;;;5016798;28;20056;-57
2023/03/01 05:29:28;;;;;;;43.58;19.33;;;-3.20;99.90;;;;;;5014699;28;20045;-58
2023/03/01 05:31:56;;;;;;;35.28;19.40;;;-3.20;99.90;;;;;;5014164;28;20529;-57
2023/03/01 05:34:25;;;;;;;41.88;20.25;;;-3.20;99.90;;;;;;5018663;28;20522;-58
2023/03/01 05:36:52;;;;;;;44.67;21.58;;;-3.00;99.90;;;;;;4994530;28;20095;-58
2023/03/01 05:39:21;;;;;;;35.83;17.95;;;-2.80;99.90;;;;;;5010738;28;20122;-57
2023/03/01 05:41:46;;;;;;;37.70;17.60;;;-2.70;99.90;;;;;;5003360;28;20018;-57
2023/03/01 05:44:12;;;;;;;30.77;16.55;;;-2.60;99.90;;;;;;5000081;28;20030;-58
2023/03/01 05:46:38;;;;;;;35.92;18.65;;;-2.40;99.90;;;;;;5010305;28;20157;-56
2023/03/01 05:49:04;;;;;;;40.25;20.40;;;-2.20;99.90;;;;;;4994311;28;20023;-58
2023/03/01 05:51:29;;;;;;;41.35;21.15;;;-2.20;99.90;;;;;;5015234;28;20433;-58
2023/03/01 05:53:55;;;;;;;34.67;19.48;;;-2.20;99.90;;;;;;5002998;28;20044;-59
2023/03/01 05:56:22;;;;;;;30.40;16.83;;;-2.10;99.90;;;;;;5000490;28;20033;-57
2023/03/01 05:58:49;;;;;;;32.47;16.88;;;-2.10;99.90;;;;;;5014646;28;20810;-57
2023/03/01 06:01:15;;;;;;;31.88;16.45;;;-2.00;99.90;;;;;;4997476;28;20041;-57
2023/03/01 06:03:41;;;;;;;30.30;17.17;;;-2.00;99.90;;;;;;5015009;28;20022;-58
2023/03/01 06:06:06;;;;;;;34.28;16.02;;;-2.00;99.90;;;;;;5000538;28;20035;-57
2023/03/01 06:08:32;;;;;;;33.95;18.50;;;-2.00;99.90;;;;;;5005069;28;20108;-56
2023/03/01 06:10:57;;;;;;;28.85;15.48;;;-1.90;99.90;;;;;;5007551;28;20646;-58
2023/03/01 06:13:24;;;;;;;32.17;15.50;;;-1.90;99.90;;;;;;4995166;28;20034;-57
2023/03/01 06:15:49;;;;;;;38.25;17.50;;;-1.80;99.90;;;;;;5017010;28;20018;-58
2023/03/01 06:18:15;;;;;;;31.67;16.80;;;-1.70;99.90;;;;;;4998596;28;20045;-57
2023/03/01 06:20:41;;;;;;;28.08;15.63;;;-1.70;99.90;;;;;;5005763;28;20030;-58
2023/03/01 06:23:06;;;;;;;33.25;17.77;;;-1.70;99.90;;;;;;5009017;28;20553;-59
2023/03/01 06:25:32;;;;;;;33.33;16.65;;;-1.70;99.90;;;;;;4996270;28;20018;-55
2023/03/01 06:27:58;;;;;;;29.33;16.02;;;-1.60;99.90;;;;;;5012810;28;20037;-58
2023/03/01 06:30:25;;;;;;;26.15;15.35;;;-1.60;99.90;;;;;;4996944;28;20037;-57
2023/03/01 06:32:51;;;;;;;34.47;17.02;;;-1.50;99.90;;;;;;5008207;28;20116;-58
2023/03/01 06:35:18;;;;;;;32.88;17.45;;;-1.50;99.90;;;;;;5003148;28;20114;-57
2023/03/01 06:37:44;;;;;;;26.45;16.25;;;-1.50;99.90;;;;;;4998092;28;20051;-59
2023/03/01 06:40:11;;;;;;;21.48;10.93;;;-1.40;99.90;;;;;;5012008;28;20042;-57
2023/03/01 06:42:38;;;;;;;32.50;16.58;;;-1.40;99.90;;;;;;4997736;28;20557;-58
2023/03/01 06:45:06;;;;;;;29.58;15.88;;;-1.30;99.90;;;;;;5008888;28;20112;-58
2023/03/01 06:47:32;;;;;;;31.85;16.95;;;-1.30;99.90;;;;;;5004899;28;20026;-57
2023/03/01 06:50:02;;;;;;;34.45;16.67;;;-1.20;99.90;;;;;;5002447;28;20033;-56
2023/03/01 06:52:28;;;;;;;33.97;17.30;;;-1.20;99.90;;;;;;5015332;28;20030;-57
2023/03/01 06:54:53;;;;;;;29.08;15.48;;;-1.20;99.90;;;;;;4997315;28;20028;-58
2023/03/01 06:57:19;;;;;;;34.08;15.95;;;-1.10;99.90;;;;;;5012371;28;20094;-58
2023/03/01 06:59:46;;;;;;;26.23;15.93;;;-1.00;99.90;;;;;;5004136;28;20061;-58
2023/03/01 07:02:12;;;;;;;26.48;14.70;;;-0.90;99.90;;;;;;5006850;28;20045;-58
2023/03/01 07:04:38;;;;;;;27.30;14.80;;;-0.90;99.90;;;;;;5015231;28;20103;-58
2023/03/01 07:07:04;;;;;;;29.63;16.70;;;-0.90;99.90;;;;;;4998461;28;20021;-58
2023/03/01 07:09:29;;;;;;;27.65;16.27;;;-0.80;99.90;;;;;;5014289;28;20525;-57
2023/03/01 07:11:56;;;;;;;34.55;18.10;;;-0.80;99.90;;;;;;5005553;28;20026;-59
2023/03/01 07:14:24;;;;;;;34.90;16.17;;;-0.80;99.90;;;;;;5010157;28;20034;-58
2023/03/01 07:16:50;;;;;;;32.35;16.90;;;-0.80;99.90;;;;;;5014482;28;20030;-58
2023/03/01 07:19:15;;;;;;;28.90;16.33;;;-0.70;99.90;;;;;;5000036;28;20026;-58
2023/03/01 07:21:41;;;;;;;31.17;16.30;;;-0.70;99.90;;;;;;5018995;28;20406;-57
2023/03/01 07:24:08;;;;;;;36.38;16.70;;;-0.60;99.90;;;;;;5005894;28;20109;-58
2023/03/01 07:26:34;;;;;;;35.10;18.65;;;-0.60;99.90;;;;;;5007258;28;20035;-58
2023/03/01 07:29:01;;;;;;;28.55;15.27;;;-0.50;99.90;;;;;;5012644;28;20038;-56
2023/03/01 07:31:27;;;;;;;27.27;16.15;;;-0.50;99.90;;;;;;4999087;28;20879;-58
2023/03/01 07:33:54;;;;;;;29.60;17.55;;;-0.50;99.90;;;;;;5019534;28;20080;-57
2023/03/01 07:36:20;;;;;;;30.23;16.60;;;-0.50;99.90;;;;;;5001552;28;20720;-57
2023/03/01 07:38:45;;;;;;;33.10;18.05;;;-0.40;99.90;;;;;;5008778;28;20025;-56
2023/03/01 07:41:11;;;;;;;26.70;16.65;;;-0.40;99.90;;;;;;5012304;28;20059;-57
2023/03/01 07:43:37;;;;;;;29.73;17.08;;;-0.30;99.90;;;;;;5000869;28;20030;-58
2023/03/01 07:46:03;;;;;;;36.92;17.50;;;-0.20;99.90;;;;;;5018801;28;20029;-57
2023/03/01 07:48:30;;;;;;;30.55;15.85;;;-0.10;99.90;;;;;;5002358;28;20392;-59
2023/03/01 07:51:00;;;;;;;34.28;18.65;;;-0.10;99.90;;;;;;5008083;28;20079;-58
2023/03/01 07:53:26;;;;;;;38.17;18.27;;;0.00;99.90;;;;;;5004937;28;20061;-58
2023/03/01 07:56:10;;;;;;;34.20;15.50;;;0.10;99.90;;;;;;5001177;28;20757;-56
2023/03/01 07:58:37;;;;;;;28.40;16.13;;;0.20;99.90;;;;;;5012488;28;20018;-57
2023/03/01 08:01:08;;;;;;;32.08;15.98;;;0.20;99.90;;;;;;5003016;28;20021;-56
2023/03/01 08:03:35;;;;;;;29.95;16.35;;;0.30;99.90;;;;;;5018449;28;20049;-56
2023/03/01 08:06:02;;;;;;;33.50;18.25;;;0.40;99.90;;;;;;5002764;28;20076;-57
2023/03/01 08:08:28;;;;;;;48.92;19.95;;;0.50;99.90;;;;;;5006787;28;20065;-57
2023/03/01 08:10:57;;;;;;;29.30;16.92;;;0.60;99.90;;;;;;5011484;28;20053;-56
2023/03/01 08:13:23;;;;;;;31.20;16.27;;;0.60;99.90;;;;;;4995932;28;20030;-58
2023/03/01 08:15:49;;;;;;;31.13;17.33;;;0.70;99.90;;;;;;4996818;28;20911;-57
2023/03/01 08:18:16;;;;;;;36.65;18.08;;;0.70;99.90;;;;;;5010907;28;20076;-57
2023/03/01 08:20:41;;;;;;;26.20;15.20;;;0.80;99.90;;;;;;5005877;28;20030;-57
2023/03/01 08:23:07;;;;;;;31.42;15.68;;;0.80;99.30;;;;;;5002542;28;20037;-57
2023/03/01 08:25:32;;;;;;;35.20;19.13;;;0.90;99.70;;;;;;5013212;28;20470;-57
2023/03/01 08:27:58;;;;;;;32.47;17.90;;;1.00;98.40;;;;;;4996371;28;20034;-57
2023/03/01 08:30:23;;;;;;;27.05;14.60;;;1.10;98.00;;;;;;5012038;28;20044;-57
2023/03/01 08:32:50;;;;;;;22.83;13.50;;;1.20;97.70;;;;;;5005016;28;20053;-58
2023/03/01 08:35:16;;;;;;;24.73;15.18;;;1.30;97.20;;;;;;5004284;28;20033;-58
2023/03/01 08:37:41;;;;;;;31.75;16.90;;;1.40;96.50;;;;;;5012267;28;20060;-58
2023/03/01 08:40:09;;;;;;;25.10;15.95;;;1.50;97.50;;;;;;4996710;28;20057;-58
2023/03/01 08:42:36;;;;;;;31.40;17.20;;;1.50;97.10;;;;;;5015219;28;20026;-58
2023/03/01 08:45:05;;;;;;;26.77;16.63;;;1.70;96.30;;;;;;5004913;28;20074;-58
2023/03/01 08:47:31;;;;;;;30.73;16.20;;;1.70;95.80;;;;;;5005601;28;20057;-58
2023/03/01 08:49:57;;;;;;;27.77;15.38;;;1.80;95.70;;;;;;5014317;28;20080;-58
2023/03/01 08:52:24;;;;;;;27.55;15.68;;;1.90;95.40;;;;;;4998312;28;20030;-58
2023/03/01 08:54:50;;;;;;;29.35;15.90;;;2.00;95.20;;;;;;4996364;28;20030;-57
2023/03/01 08:57:15;;;;;;;29.60;16.48;;;2.00;94.60;;;;;;5008382;28;20026;-57
2023/03/01 08:59:41;;;;;;;29.13;15.85;;;2.10;93.80;;;;;;5008081;28;20026;-58
2023/03/01 09:02:13;;;;;;;31.25;17.13;;;2.10;93.80;;;;;;5003397;28;20033;-57
2023/03/01 09:04:39;;;;;;;30.65;17.00;;;2.20;94.20;;;;;;5014822;28;20022;-58
2023/03/01 09:07:05;;;;;;;29.38;15.32;;;2.20;93.70;;;;;;4995316;28;20022;-59
2023/03/01 09:09:30;;;;;;;25.75;16.42;;;2.30;93.90;;;;;;5012105;28;20034;-58
2023/03/01 09:11:56;;;;;;;21.65;15.15;;;2.40;94.00;;;;;;5003430;28;20034;-57
2023/03/01 09:14:21;;;;;;;26.63;16.23;;;2.50;93.50;;;;;;5005525;28;20025;-58
2023/03/01 09:16:47;;;;;;;30.75;16.25;;;2.60;92.90;;;;;;5012793;28;20032;-58
2023/03/01 09:19:13;;;;;;;27.90;16.60;;;2.70;92.60;;;;;;4997079;28;20030;-57
2023/03/01 09:21:39;;;;;;;25.25;15.10;;;2.90;92.80;;;;;;5011701;28;20034;-59
2023/03/01 09:24:06;;;;;;;33.35;17.27;;;3.30;92.40;;;;;;5001483;28;20073;-58
2023/03/01 09:26:31;;;;;;;27.95;16.70;;;4.00;90.80;;;;;;5003687;28;20567;-58
2023/03/01 09:28:57;;;;;;;19.38;15.23;;;5.30;87.00;;;;;;5012344;28;20054;-58
2023/03/01 09:31:24;;;;;;;20.60;16.05;;;6.70;79.70;;;;;;4997946;28;20032;-59
2023/03/01 09:33:52;;;;;;;26.20;15.73;;;7.60;74.50;;;;;;4996847;28;20252;-58
2023/03/01 09:36:22;;;;;;;26.65;17.35;;;8.60;69.80;;;;;;5012060;28;20030;-59
2023/03/01 09:38:49;;;;;;;19.77;16.13;;;9.00;66.90;;;;;;5005109;28;20185;-60
2023/03/01 09:41:17;;;;;;;20.42;16.00;;;9.30;64.30;;;;;;5002431;28;20038;-60
2023/03/01 09:43:56;;;;;;;24.13;17.33;;;9.50;62.90;;;;;;5013730;28;20410;-59
2023/03/01 09:46:24;;;;;;;18.85;15.18;;;9.80;62.50;;;;;;4996615;28;20017;-57
2023/03/01 09:49:04;;;;;;;25.65;16.52;;;10.00;60.20;;;;;;4997656;28;20121;-59
2023/03/01 09:51:35;;;;;;;21.63;16.08;;;10.20;60.30;;;;;;5012553;28;20038;-61
2023/03/01 09:54:05;;;;;;;17.60;15.80;;;10.40;58.80;;;;;;5002622;28;20035;-60
2023/03/01 09:56:39;;;;;;;22.67;15.98;;;10.20;59.70;;;;;;5003433;28;20036;-58
2023/03/01 09:59:14;;;;;;;18.67;15.88;;;10.20;58.60;;;;;;5008302;28;20026;-60
2023/03/01 10:02:14;;;;;;;16.98;15.18;;;10.10;59.10;;;;;;4997529;28;20700;-60
2023/03/01 10:04:42;;;;;;;21.67;15.05;;;10.30;59.50;;;;;;5013756;28;20022;-59
2023/03/01 10:07:17;;;;;;;21.45;16.27;;;10.40;59.00;;;;;;4995972;28;20097;-60
2023/03/01 10:09:45;;;;;;;17.75;15.13;;;10.20;59.00;;;;;;5012137;28;20084;-59
2023/03/01 10:12:16;;;;;;;19.08;14.85;;;10.20;59.00;;;;;;4999346;28;20046;-58
2023/03/01 10:14:53;;;;;;;21.23;15.35;;;10.20;59.10;;;;;;5004836;28;20034;-58
2023/03/01 10:17:34;;;;;;;18.58;16.40;;;10.30;58.70;;;;;;5008696;28;20030;-60
2023/03/01 10:20:22;;;;;;;17.73;14.48;;;10.30;58.60;;;;;;4998290;28;20026;-58
2023/03/01 10:22:52;;;;;;;25.15;17.00;;;10.40;58.90;;;;;;5007157;28;20537;-58
2023/03/01 10:25:52;;;;;;;17.05;15.05;;;10.20;58.50;;;;;;5000102;28;20030;-59
2023/03/01 10:28:44;;;;;;;20.88;15.27;;;10.00;59.40;;;;;;5003456;28;20046;-61
2023/03/01 10:31:17;;;;;;;19.55;14.63;;;10.40;58.50;;;;;;5018011;28;20038;-59
2023/03/01 10:33:43;;;;;;;17.98;14.80;;;10.70;57.70;;;;;;5018334;28;20458;-60
2023/03/01 10:36:08;;;;;;;17.67;15.18;;;10.90;57.20;;;;;;5017076;28;20018;-61
2023/03/01 10:38:53;;;;;;;18.98;15.20;;;10.90;56.40;;;;;;5023744;28;20113;-60
2023/03/01 10:41:20;;;;;;;18.75;14.93;;;11.20;58.80;;;;;;5020347;28;20678;-60
2023/03/01 10:43:57;;;;;;;18.23;15.90;;;11.60;56.60;;;;;;5018188;28;20265;-60
2023/03/01 10:46:29;;;;;;;15.70;14.05;;;11.90;55.80;;;;;;5017380;28;20061;-59
2023/03/01 10:49:15;;;;;;;17.77;14.48;;;12.10;56.20;;;;;;5018824;28;20072;-60
2023/03/01 10:51:43;;;;;;;16.00;14.30;;;12.60;53.90;;;;;;5018735;28;20037;-61
2023/03/01 10:54:27;;;;;;;17.13;14.82;;;12.70;53.60;;;;;;5020129;28;20029;-60
2023/03/01 10:57:01;;;;;;;20.35;17.20;;;12.70;53.30;;;;;;5020515;28;20037;-59
2023/03/01 10:59:30;;;;;;;20.05;16.10;;;12.80;54.40;;;;;;5020134;28;20137;-59
2023/03/01 11:02:23;;;;;;;18.08;15.38;;;13.00;51.80;;;;;;5019134;28;20026;-59
2023/03/01 11:05:12;;;;;;;17.33;14.70;;;13.00;53.40;;;;;;5019724;28;20045;-60
2023/03/01 11:07:58;;;;;;;18.85;16.33;;;13.00;55.50;;;;;;5016832;28;20030;-59
2023/03/01 11:10:28;;;;;;;17.00;14.30;;;12.70;52.20;;;;;;5020536;28;20033;-58
2023/03/01 11:13:15;;;;;;;16.15;14.52;;;12.10;53.00;;;;;;5017155;28;20029;-59
2023/03/01 11:15:42;;;;;;;21.90;16.05;;;11.60;53.70;;;;;;5014955;28;20022;-59
2023/03/01 11:18:22;;;;;;;19.42;15.32;;;11.20;55.80;;;;;;5016599;28;20028;-61
2023/03/01 11:20:51;;;;;;;16.83;12.95;;;10.90;56.70;;;;;;5019038;28;20080;-59
2023/03/01 11:23:17;;;;;;;16.15;13.38;;;10.80;56.50;;;;;;5017565;28;20080;-60
2023/03/01 11:25:58;;;;;;;18.33;14.43;;;10.50;57.10;;;;;;5018135;28;20021;-59
2023/03/01 11:28:25;;;;;;;;;;;10.40;59.50;;;;;;5019276;28;20042;-59
2023/03/01 11:31:01;;;;;;;17.90;13.60;;;10.50;58.70;;;;;;5019207;28;19910;-59
2023/03/01 11:33:45;;;;;;;16.15;13.70;;;10.40;56.60;;;;;;5018385;28;20030;-59
2023/03/01 11:36:42;;;;;;;15.82;13.25;;;10.20;59.50;;;;;;5017280;28;20038;-60
2023/03/01 11:39:38;;;;;;;13.68;12.32;;;10.30;58.20;;;;;;5015127;28;20076;-60
2023/03/01 11:42:20;;;;;;;15.95;13.07;;;10.30;61.10;;;;;;5016898;28;20026;-58
2023/03/01 11:44:50;;;;;;;14.20;12.10;;;10.40;58.10;;;;;;5017676;28;20467;-59
2023/03/01 11:47:43;;;;;;;16.20;12.48;;;10.30;59.30;;;;;;5016472;28;20113;-59
2023/03/01 11:50:16;;;;;;;15.88;12.55;;;10.20;59.80;;;;;;5013284;28;20117;-59
2023/03/01 11:52:54;;;;;;;14.35;12.85;;;10.20;59.10;;;;;;5020920;28;20037;-60
2023/03/01 11:55:59;;;;;;;14.32;10.07;;;10.20;59.90;;;;;;5022160;28;20033;-59
2023/03/01 11:58:53;;;;;;;14.88;11.63;;;10.10;57.50;;;;;;5012268;28;20387;-61
2023/03/01 12:01:54;;;;;;;13.32;9.85;;;9.70;58.80;;;;;;5017253;28;20105;-59
2023/03/01 12:04:41;;;;;;;14.40;11.38;;;9.60;59.40;;;;;;5019966;28;20045;-60
2023/03/01 12:07:15;;;;;;;18.42;11.90;;;9.70;59.90;;;;;;5017881;28;20561;-61
2023/03/01 12:10:10;;;;;;;11.25;10.10;;;9.80;59.20;;;;;;5017354;28;20153;-59
2023/03/01 12:13:05;;;;;;;11.10;9.57;;;9.90;60.40;;;;;;5013841;28;20022;-60
2023/03/01 12:15:42;;;;;;;11.65;9.82;;;10.10;59.60;;;;;;5015410;28;20026;-60
2023/03/01 12:18:35;;;;;;;12.75;10.57;;;10.30;59.20;;;;;;5014307;28;20026;-58
2023/03/01 12:21:20;;;;;;;15.85;10.75;;;10.40;57.20;;;;;;5017603;28;20054;-60
2023/03/01 12:23:57;;;;;;;14.07;11.27;;;10.30;56.30;;;;;;5018123;28;20152;-58
2023/03/01 12:26:39;;;;;;;12.05;10.77;;;10.20;58.30;;;;;;5017396;28;20021;-58
2023/03/01 12:29:17;;;;;;;18.17;10.75;;;10.10;57.20;;;;;;5017519;28;20037;-59
2023/03/01 12:32:08;;;;;;;12.77;10.43;;;9.80;58.80;;;;;;5018398;28;20069;-59
2023/03/01 12:35:12;;;;;;;13.02;9.07;;;9.60;58.40;;;;;;5015730;28;20029;-58
2023/03/01 12:37:52;;;;;;;11.15;9.93;;;9.40;59.30;;;;;;5013255;28;20121;-58
2023/03/01 12:40:21;;;;;;;15.32;10.30;;;9.20;59.50;;;;;;5019349;28;20072;-58
2023/03/01 12:43:12;;;;;;;12.10;9.70;;;9.10;60.40;;;;;;5016439;28;20499;-59
2023/03/01 12:45:46;;;;;;;12.93;11.43;;;9.10;60.90;;;;;;5015797;28;20040;-59
2023/03/01 12:48:23;;;;;;;12.35;10.75;;;9.20;62.40;;;;;;5015811;28;20038;-59